sensor_id;sensor_type;location;lat;lon;timestamp;P1;durP1;ratioP1;P2;durP2;ratioP2
62058;SDS011;48017;51.064;7.014;2022-10-31T00:01:13;7.93;;;4.05;;
62058;SDS011;48017;51.064;7.014;2022-10-31T00:03:57;9.30;;;4.10;;
62058;SDS011;48017;51.064;7.014;2022-10-31T00:06:22;6.10;;;3.40;;
62058;SDS011;48017;51.064;7.014;2022-10-31T00:08:52;6.88;;;3.50;;
62058;SDS011;48017;51.064;7.014;2022-10-31T00:11:19;8.63;;;3.92;;
62058;SDS011;48017;51.064;7.014;2022-10-31T00:13:45;8.30;;;3.67;;
62058;SDS011;48017;51.064;7.014;2022-10-31T00:16:20;6.43;;;3.92;;
62058;SDS011;48017;51.064;7.014;2022-10-31T00:18:48;10.23;;;4.40;;
62058;SDS011;48017;51.064;7.014;2022-10-31T00:21:14;7.55;;;3.65;;
62058;SDS011;48017;51.064;7.014;2022-10-31T00:23:40;5.70;;;3.45;;
62058;SDS011;48017;51.064;7.014;2022-10-31T00:26:06;7.03;;;3.60;;
62058;SDS011;48017;51.064;7.014;2022-10-31T00:28:31;9.93;;;3.83;;
62058;SDS011;48017;51.064;7.014;2022-10-31T00:30:58;9.55;;;3.78;;
62058;SDS011;48017;51.064;7.014;2022-10-31T00:33:27;8.27;;;4.13;;
62058;SDS011;48017;51.064;7.014;2022-10-31T00:35:52;7.07;;;3.70;;
62058;SDS011;48017;51.064;7.014;2022-10-31T00:38:18;8.05;;;3.75;;
62058;SDS011;48017;51.064;7.014;2022-10-31T00:40:43;6.43;;;3.42;;
62058;SDS011;48017;51.064;7.014;2022-10-31T00:43:09;8.10;;;3.53;;
62058;SDS011;48017;51.064;7.014;2022-10-31T00:45:34;8.13;;;3.78;;
62058;SDS011;48017;51.064;7.014;2022-10-31T00:47:59;8.52;;;3.33;;
62058;SDS011;48017;51.064;7.014;2022-10-31T00:50:25;10.40;;;4.28;;
62058;SDS011;48017;51.064;7.014;2022-10-31T00:52:50;11.05;;;4.13;;
62058;SDS011;48017;51.064;7.014;2022-10-31T00:55:16;7.15;;;3.78;;
62058;SDS011;48017;51.064;7.014;2022-10-31T00:57:41;7.28;;;3.92;;
62058;SDS011;48017;51.064;7.014;2022-10-31T01:00:07;6.47;;;3.60;;
62058;SDS011;48017;51.064;7.014;2022-10-31T01:02:32;6.55;;;3.70;;
62058;SDS011;48017;51.064;7.014;2022-10-31T01:04:58;4.88;;;3.42;;
62058;SDS011;48017;51.064;7.014;2022-10-31T01:07:23;8.32;;;3.85;;
62058;SDS011;48017;51.064;7.014;2022-10-31T01:09:48;8.27;;;3.85;;
62058;SDS011;48017;51.064;7.014;2022-10-31T01:12:14;9.57;;;4.03;;
62058;SDS011;48017;51.064;7.014;2022-10-31T01:14:42;5.97;;;3.33;;
62058;SDS011;48017;51.064;7.014;2022-10-31T01:17:09;10.20;;;3.40;;
62058;SDS011;48017;51.064;7.014;2022-10-31T01:19:35;7.97;;;3.92;;
62058;SDS011;48017;51.064;7.014;2022-10-31T01:22:00;7.10;;;3.65;;
62058;SDS011;48017;51.064;7.014;2022-10-31T01:24:25;7.07;;;3.65;;
62058;SDS011;48017;51.064;7.014;2022-10-31T01:26:51;7.25;;;3.55;;
62058;SDS011;48017;51.064;7.014;2022-10-31T01:29:16;5.75;;;3.40;;
62058;SDS011;48017;51.064;7.014;2022-10-31T01:31:41;6.70;;;3.72;;
62058;SDS011;48017;51.064;7.014;2022-10-31T01:34:07;6.30;;;3.60;;
62058;SDS011;48017;51.064;7.014;2022-10-31T01:36:33;9.48;;;3.50;;
62058;SDS011;48017;51.064;7.014;2022-10-31T01:39:02;6.78;;;3.42;;
62058;SDS011;48017;51.064;7.014;2022-10-31T01:41:33;8.32;;;3.67;;
62058;SDS011;48017;51.064;7.014;2022-10-31T01:44:01;7.63;;;3.58;;
62058;SDS011;48017;51.064;7.014;2022-10-31T01:46:39;6.95;;;3.97;;
62058;SDS011;48017;51.064;7.014;2022-10-31T01:49:13;6.70;;;3.53;;
62058;SDS011;48017;51.064;7.014;2022-10-31T01:51:41;5.78;;;3.60;;
62058;SDS011;48017;51.064;7.014;2022-10-31T01:54:12;7.22;;;3.50;;
62058;SDS011;48017;51.064;7.014;2022-10-31T01:56:40;6.43;;;3.30;;
62058;SDS011;48017;51.064;7.014;2022-10-31T01:59:11;6.85;;;3.72;;
62058;SDS011;48017;51.064;7.014;2022-10-31T02:01:40;5.55;;;3.42;;
62058;SDS011;48017;51.064;7.014;2022-10-31T02:04:06;6.93;;;3.33;;
62058;SDS011;48017;51.064;7.014;2022-10-31T02:11:27;9.18;;;3.60;;
62058;SDS011;48017;51.064;7.014;2022-10-31T02:13:53;9.15;;;3.72;;
62058;SDS011;48017;51.064;7.014;2022-10-31T02:16:19;4.57;;;3.30;;
62058;SDS011;48017;51.064;7.014;2022-10-31T02:18:44;5.57;;;3.80;;
62058;SDS011;48017;51.064;7.014;2022-10-31T02:24:17;6.70;;;3.88;;
62058;SDS011;48017;51.064;7.014;2022-10-31T02:26:51;12.65;;;3.72;;
62058;SDS011;48017;51.064;7.014;2022-10-31T02:43:26;5.68;;;3.70;;
62058;SDS011;48017;51.064;7.014;2022-10-31T02:48:31;6.22;;;3.65;;
62058;SDS011;48017;51.064;7.014;2022-10-31T02:51:00;8.82;;;3.92;;
62058;SDS011;48017;51.064;7.014;2022-10-31T02:53:32;7.72;;;4.07;;
62058;SDS011;48017;51.064;7.014;2022-10-31T02:58:34;7.15;;;3.60;;
62058;SDS011;48017;51.064;7.014;2022-10-31T03:01:20;9.43;;;3.67;;
62058;SDS011;48017;51.064;7.014;2022-10-31T03:09:12;10.05;;;3.90;;
62058;SDS011;48017;51.064;7.014;2022-10-31T03:11:55;7.93;;;3.50;;
62058;SDS011;48017;51.064;7.014;2022-10-31T03:14:30;6.15;;;3.53;;
62058;SDS011;48017;51.064;7.014;2022-10-31T03:17:02;7.47;;;3.78;;
62058;SDS011;48017;51.064;7.014;2022-10-31T03:19:37;9.25;;;4.20;;
62058;SDS011;48017;51.064;7.014;2022-10-31T03:22:18;7.78;;;4.05;;
62058;SDS011;48017;51.064;7.014;2022-10-31T03:24:47;8.32;;;3.95;;
62058;SDS011;48017;51.064;7.014;2022-10-31T03:27:16;7.85;;;3.85;;
62058;SDS011;48017;51.064;7.014;2022-10-31T03:29:47;7.45;;;3.97;;
62058;SDS011;48017;51.064;7.014;2022-10-31T03:32:16;7.15;;;3.65;;
62058;SDS011;48017;51.064;7.014;2022-10-31T03:34:46;9.75;;;3.63;;
62058;SDS011;48017;51.064;7.014;2022-10-31T03:39:43;8.73;;;4.10;;
62058;SDS011;48017;51.064;7.014;2022-10-31T03:42:15;16.00;;;8.38;;
62058;SDS011;48017;51.064;7.014;2022-10-31T03:44:46;14.93;;;7.10;;
62058;SDS011;48017;51.064;7.014;2022-10-31T03:47:18;10.65;;;4.45;;
62058;SDS011;48017;51.064;7.014;2022-10-31T03:49:43;7.90;;;4.03;;
62058;SDS011;48017;51.064;7.014;2022-10-31T03:52:19;7.50;;;4.13;;
62058;SDS011;48017;51.064;7.014;2022-10-31T03:54:52;8.00;;;3.85;;
62058;SDS011;48017;51.064;7.014;2022-10-31T03:57:27;6.82;;;3.67;;
62058;SDS011;48017;51.064;7.014;2022-10-31T04:00:03;9.93;;;4.05;;
62058;SDS011;48017;51.064;7.014;2022-10-31T04:02:34;6.30;;;3.60;;
62058;SDS011;48017;51.064;7.014;2022-10-31T04:05:04;7.18;;;3.83;;
62058;SDS011;48017;51.064;7.014;2022-10-31T04:07:32;8.10;;;3.57;;
62058;SDS011;48017;51.064;7.014;2022-10-31T04:10:02;10.60;;;4.57;;
62058;SDS011;48017;51.064;7.014;2022-10-31T04:12:32;8.07;;;4.28;;
62058;SDS011;48017;51.064;7.014;2022-10-31T04:15:00;11.73;;;4.32;;
62058;SDS011;48017;51.064;7.014;2022-10-31T04:17:28;7.22;;;3.75;;
62058;SDS011;48017;51.064;7.014;2022-10-31T04:19:58;7.75;;;4.20;;
62058;SDS011;48017;51.064;7.014;2022-10-31T04:24:50;8.05;;;3.58;;
62058;SDS011;48017;51.064;7.014;2022-10-31T04:27:16;9.65;;;4.00;;
62058;SDS011;48017;51.064;7.014;2022-10-31T04:29:41;7.25;;;3.78;;
62058;SDS011;48017;51.064;7.014;2022-10-31T04:32:06;7.50;;;4.07;;
62058;SDS011;48017;51.064;7.014;2022-10-31T04:34:32;7.22;;;3.75;;
62058;SDS011;48017;51.064;7.014;2022-10-31T04:36:57;7.30;;;4.25;;
62058;SDS011;48017;51.064;7.014;2022-10-31T04:39:22;11.88;;;4.20;;
62058;SDS011;48017;51.064;7.014;2022-10-31T04:41:48;13.27;;;4.15;;
62058;SDS011;48017;51.064;7.014;2022-10-31T04:44:13;10.57;;;4.65;;
62058;SDS011;48017;51.064;7.014;2022-10-31T04:46:39;7.55;;;4.60;;
62058;SDS011;48017;51.064;7.014;2022-10-31T04:49:04;6.65;;;3.75;;
62058;SDS011;48017;51.064;7.014;2022-10-31T04:51:29;8.07;;;4.03;;
62058;SDS011;48017;51.064;7.014;2022-10-31T04:53:55;8.10;;;3.72;;
62058;SDS011;48017;51.064;7.014;2022-10-31T04:56:20;7.80;;;4.22;;
62058;SDS011;48017;51.064;7.014;2022-10-31T04:58:45;8.23;;;4.05;;
62058;SDS011;48017;51.064;7.014;2022-10-31T05:01:11;10.77;;;5.05;;
62058;SDS011;48017;51.064;7.014;2022-10-31T05:03:36;8.38;;;3.78;;
62058;SDS011;48017;51.064;7.014;2022-10-31T05:06:04;7.57;;;3.90;;
62058;SDS011;48017;51.064;7.014;2022-10-31T05:08:29;8.07;;;3.90;;
62058;SDS011;48017;51.064;7.014;2022-10-31T05:10:55;6.53;;;4.07;;
62058;SDS011;48017;51.064;7.014;2022-10-31T05:13:20;9.18;;;4.57;;
62058;SDS011;48017;51.064;7.014;2022-10-31T05:15:45;8.45;;;4.30;;
62058;SDS011;48017;51.064;7.014;2022-10-31T05:18:11;10.40;;;4.38;;
62058;SDS011;48017;51.064;7.014;2022-10-31T05:20:36;9.05;;;4.78;;
62058;SDS011;48017;51.064;7.014;2022-10-31T05:23:02;9.82;;;4.85;;
62058;SDS011;48017;51.064;7.014;2022-10-31T05:25:27;7.18;;;4.43;;
62058;SDS011;48017;51.064;7.014;2022-10-31T05:27:54;11.70;;;5.18;;
62058;SDS011;48017;51.064;7.014;2022-10-31T05:30:22;7.90;;;4.30;;
62058;SDS011;48017;51.064;7.014;2022-10-31T05:32:49;6.95;;;4.43;;
62058;SDS011;48017;51.064;7.014;2022-10-31T05:35:17;7.85;;;4.38;;
62058;SDS011;48017;51.064;7.014;2022-10-31T05:37:44;10.10;;;4.70;;
62058;SDS011;48017;51.064;7.014;2022-10-31T05:40:11;8.23;;;4.50;;
62058;SDS011;48017;51.064;7.014;2022-10-31T05:42:38;7.80;;;4.78;;
62058;SDS011;48017;51.064;7.014;2022-10-31T05:45:05;8.02;;;4.68;;
62058;SDS011;48017;51.064;7.014;2022-10-31T05:47:31;10.97;;;4.43;;
62058;SDS011;48017;51.064;7.014;2022-10-31T05:49:57;7.32;;;4.57;;
62058;SDS011;48017;51.064;7.014;2022-10-31T05:52:22;7.53;;;3.75;;
62058;SDS011;48017;51.064;7.014;2022-10-31T05:54:48;9.05;;;4.47;;
62058;SDS011;48017;51.064;7.014;2022-10-31T05:57:13;10.35;;;4.30;;
62058;SDS011;48017;51.064;7.014;2022-10-31T05:59:38;7.80;;;4.88;;
62058;SDS011;48017;51.064;7.014;2022-10-31T06:02:04;12.15;;;4.68;;
62058;SDS011;48017;51.064;7.014;2022-10-31T06:04:29;7.68;;;4.70;;
62058;SDS011;48017;51.064;7.014;2022-10-31T06:06:55;9.07;;;4.55;;
62058;SDS011;48017;51.064;7.014;2022-10-31T06:09:21;6.03;;;4.13;;
62058;SDS011;48017;51.064;7.014;2022-10-31T06:11:46;7.43;;;4.93;;
62058;SDS011;48017;51.064;7.014;2022-10-31T06:14:12;7.18;;;4.47;;
62058;SDS011;48017;51.064;7.014;2022-10-31T06:16:37;7.78;;;4.10;;
62058;SDS011;48017;51.064;7.014;2022-10-31T06:19:03;9.55;;;4.72;;
62058;SDS011;48017;51.064;7.014;2022-10-31T06:21:28;13.82;;;4.57;;
62058;SDS011;48017;51.064;7.014;2022-10-31T06:23:53;8.60;;;4.63;;
62058;SDS011;48017;51.064;7.014;2022-10-31T06:26:19;9.18;;;4.40;;
62058;SDS011;48017;51.064;7.014;2022-10-31T06:28:44;8.43;;;4.40;;
62058;SDS011;48017;51.064;7.014;2022-10-31T06:31:09;9.40;;;4.72;;
62058;SDS011;48017;51.064;7.014;2022-10-31T06:33:35;9.85;;;4.45;;
62058;SDS011;48017;51.064;7.014;2022-10-31T06:36:00;8.13;;;4.95;;
62058;SDS011;48017;51.064;7.014;2022-10-31T06:38:26;10.35;;;4.68;;
62058;SDS011;48017;51.064;7.014;2022-10-31T06:40:52;11.20;;;4.90;;
62058;SDS011;48017;51.064;7.014;2022-10-31T06:43:18;11.57;;;4.72;;
62058;SDS011;48017;51.064;7.014;2022-10-31T06:45:44;9.65;;;4.95;;
62058;SDS011;48017;51.064;7.014;2022-10-31T06:48:10;7.75;;;4.72;;
62058;SDS011;48017;51.064;7.014;2022-10-31T06:50:35;10.68;;;4.80;;
62058;SDS011;48017;51.064;7.014;2022-10-31T06:53:00;6.55;;;4.25;;
62058;SDS011;48017;51.064;7.014;2022-10-31T06:55:26;11.20;;;4.72;;
62058;SDS011;48017;51.064;7.014;2022-10-31T07:00:22;10.50;;;4.97;;
62058;SDS011;48017;51.064;7.014;2022-10-31T07:03:09;8.25;;;4.55;;
62058;SDS011;48017;51.064;7.014;2022-10-31T07:05:36;8.02;;;4.57;;
62058;SDS011;48017;51.064;7.014;2022-10-31T07:08:05;13.05;;;4.93;;
62058;SDS011;48017;51.064;7.014;2022-10-31T07:10:32;11.85;;;5.10;;
62058;SDS011;48017;51.064;7.014;2022-10-31T07:13:02;11.70;;;5.20;;
62058;SDS011;48017;51.064;7.014;2022-10-31T07:15:29;13.90;;;5.35;;
62058;SDS011;48017;51.064;7.014;2022-10-31T07:18:01;8.30;;;4.72;;
62058;SDS011;48017;51.064;7.014;2022-10-31T07:20:27;8.32;;;4.90;;
62058;SDS011;48017;51.064;7.014;2022-10-31T07:22:53;16.02;;;7.85;;
62058;SDS011;48017;51.064;7.014;2022-10-31T07:25:19;11.80;;;5.97;;
62058;SDS011;48017;51.064;7.014;2022-10-31T07:27:44;8.90;;;5.10;;
62058;SDS011;48017;51.064;7.014;2022-10-31T07:30:10;11.93;;;5.45;;
62058;SDS011;48017;51.064;7.014;2022-10-31T07:32:40;9.65;;;5.47;;
62058;SDS011;48017;51.064;7.014;2022-10-31T07:35:07;12.13;;;5.25;;
62058;SDS011;48017;51.064;7.014;2022-10-31T07:37:33;16.50;;;7.13;;
62058;SDS011;48017;51.064;7.014;2022-10-31T07:39:59;13.57;;;5.70;;
62058;SDS011;48017;51.064;7.014;2022-10-31T07:42:24;14.30;;;6.32;;
62058;SDS011;48017;51.064;7.014;2022-10-31T07:44:50;18.70;;;6.50;;
62058;SDS011;48017;51.064;7.014;2022-10-31T07:47:15;9.48;;;5.65;;
62058;SDS011;48017;51.064;7.014;2022-10-31T07:49:40;20.20;;;6.55;;
62058;SDS011;48017;51.064;7.014;2022-10-31T07:52:06;14.20;;;6.55;;
62058;SDS011;48017;51.064;7.014;2022-10-31T07:54:31;15.50;;;5.88;;
62058;SDS011;48017;51.064;7.014;2022-10-31T07:56:56;12.68;;;5.80;;
62058;SDS011;48017;51.064;7.014;2022-10-31T07:59:22;14.20;;;5.25;;
62058;SDS011;48017;51.064;7.014;2022-10-31T08:01:47;17.73;;;8.27;;
62058;SDS011;48017;51.064;7.014;2022-10-31T08:04:12;12.50;;;7.93;;
62058;SDS011;48017;51.064;7.014;2022-10-31T08:06:38;11.45;;;6.70;;
62058;SDS011;48017;51.064;7.014;2022-10-31T08:09:03;10.27;;;6.35;;
62058;SDS011;48017;51.064;7.014;2022-10-31T08:11:28;13.35;;;5.35;;
62058;SDS011;48017;51.064;7.014;2022-10-31T08:13:54;14.65;;;4.75;;
62058;SDS011;48017;51.064;7.014;2022-10-31T08:16:19;8.95;;;4.68;;
62058;SDS011;48017;51.064;7.014;2022-10-31T08:18:44;10.45;;;4.70;;
62058;SDS011;48017;51.064;7.014;2022-10-31T08:21:10;10.55;;;5.13;;
62058;SDS011;48017;51.064;7.014;2022-10-31T08:23:35;8.98;;;4.60;;
62058;SDS011;48017;51.064;7.014;2022-10-31T08:26:01;12.57;;;4.45;;
62058;SDS011;48017;51.064;7.014;2022-10-31T08:28:26;9.45;;;4.75;;
62058;SDS011;48017;51.064;7.014;2022-10-31T08:30:51;7.97;;;4.20;;
62058;SDS011;48017;51.064;7.014;2022-10-31T08:33:17;14.52;;;4.50;;
62058;SDS011;48017;51.064;7.014;2022-10-31T08:35:43;10.02;;;4.70;;
62058;SDS011;48017;51.064;7.014;2022-10-31T08:38:10;7.72;;;4.20;;
62058;SDS011;48017;51.064;7.014;2022-10-31T08:40:37;11.57;;;4.70;;
62058;SDS011;48017;51.064;7.014;2022-10-31T08:43:09;8.55;;;4.55;;
62058;SDS011;48017;51.064;7.014;2022-10-31T08:45:36;7.32;;;4.30;;
62058;SDS011;48017;51.064;7.014;2022-10-31T08:48:03;10.25;;;4.60;;
62058;SDS011;48017;51.064;7.014;2022-10-31T08:50:31;8.23;;;4.97;;
62058;SDS011;48017;51.064;7.014;2022-10-31T08:53:03;8.23;;;4.80;;
62058;SDS011;48017;51.064;7.014;2022-10-31T08:55:34;12.20;;;4.50;;
62058;SDS011;48017;51.064;7.014;2022-10-31T08:58:00;8.20;;;5.15;;
62058;SDS011;48017;51.064;7.014;2022-10-31T09:00:26;10.10;;;4.90;;
62058;SDS011;48017;51.064;7.014;2022-10-31T09:03:00;11.52;;;5.47;;
62058;SDS011;48017;51.064;7.014;2022-10-31T09:05:26;8.85;;;5.15;;
62058;SDS011;48017;51.064;7.014;2022-10-31T09:07:59;8.90;;;5.10;;
62058;SDS011;48017;51.064;7.014;2022-10-31T09:10:25;10.40;;;5.22;;
62058;SDS011;48017;51.064;7.014;2022-10-31T09:12:59;9.40;;;5.20;;
62058;SDS011;48017;51.064;7.014;2022-10-31T09:15:45;11.90;;;5.55;;
62058;SDS011;48017;51.064;7.014;2022-10-31T09:18:12;7.95;;;4.93;;
62058;SDS011;48017;51.064;7.014;2022-10-31T09:20:40;10.50;;;5.45;;
62058;SDS011;48017;51.064;7.014;2022-10-31T09:23:09;16.48;;;5.18;;
62058;SDS011;48017;51.064;7.014;2022-10-31T09:25:37;12.60;;;5.30;;
62058;SDS011;48017;51.064;7.014;2022-10-31T09:28:03;9.77;;;5.53;;
62058;SDS011;48017;51.064;7.014;2022-10-31T09:30:30;13.60;;;5.40;;
62058;SDS011;48017;51.064;7.014;2022-10-31T09:32:58;8.68;;;5.22;;
62058;SDS011;48017;51.064;7.014;2022-10-31T09:35:25;8.38;;;5.00;;
62058;SDS011;48017;51.064;7.014;2022-10-31T09:37:57;9.98;;;5.30;;
62058;SDS011;48017;51.064;7.014;2022-10-31T09:40:33;8.85;;;4.55;;
62058;SDS011;48017;51.064;7.014;2022-10-31T09:45:37;7.45;;;4.80;;
62058;SDS011;48017;51.064;7.014;2022-10-31T09:51:04;8.93;;;5.15;;
62058;SDS011;48017;51.064;7.014;2022-10-31T09:53:34;10.15;;;5.00;;
62058;SDS011;48017;51.064;7.014;2022-10-31T09:56:06;7.68;;;4.72;;
62058;SDS011;48017;51.064;7.014;2022-10-31T09:58:39;8.52;;;4.63;;
62058;SDS011;48017;51.064;7.014;2022-10-31T10:01:09;7.88;;;4.75;;
62058;SDS011;48017;51.064;7.014;2022-10-31T10:03:45;10.20;;;5.03;;
62058;SDS011;48017;51.064;7.014;2022-10-31T10:06:24;13.80;;;4.95;;
62058;SDS011;48017;51.064;7.014;2022-10-31T10:08:54;9.07;;;4.40;;
62058;SDS011;48017;51.064;7.014;2022-10-31T10:27:58;8.55;;;4.05;;
62058;SDS011;48017;51.064;7.014;2022-10-31T10:33:40;7.78;;;3.72;;
62058;SDS011;48017;51.064;7.014;2022-10-31T10:36:04;8.55;;;3.72;;
62058;SDS011;48017;51.064;7.014;2022-10-31T10:41:30;13.85;;;4.03;;
62058;SDS011;48017;51.064;7.014;2022-10-31T10:43:57;7.95;;;4.07;;
62058;SDS011;48017;51.064;7.014;2022-10-31T10:55:04;9.00;;;3.63;;
62058;SDS011;48017;51.064;7.014;2022-10-31T11:00:21;8.43;;;3.60;;
62058;SDS011;48017;51.064;7.014;2022-10-31T11:02:50;7.15;;;3.65;;
62058;SDS011;48017;51.064;7.014;2022-10-31T11:07:53;8.23;;;3.22;;
62058;SDS011;48017;51.064;7.014;2022-10-31T11:10:19;6.57;;;3.50;;
62058;SDS011;48017;51.064;7.014;2022-10-31T11:12:46;9.07;;;3.75;;
62058;SDS011;48017;51.064;7.014;2022-10-31T11:15:24;7.30;;;3.15;;
62058;SDS011;48017;51.064;7.014;2022-10-31T11:17:53;8.30;;;3.30;;
62058;SDS011;48017;51.064;7.014;2022-10-31T11:22:46;6.38;;;3.08;;
62058;SDS011;48017;51.064;7.014;2022-10-31T11:25:25;6.13;;;3.10;;
62058;SDS011;48017;51.064;7.014;2022-10-31T11:28:04;6.15;;;2.67;;
62058;SDS011;48017;51.064;7.014;2022-10-31T11:30:50;4.93;;;2.60;;
62058;SDS011;48017;51.064;7.014;2022-10-31T11:33:19;6.05;;;2.72;;
62058;SDS011;48017;51.064;7.014;2022-10-31T11:35:55;5.77;;;2.80;;
62058;SDS011;48017;51.064;7.014;2022-10-31T11:38:22;7.75;;;3.88;;
62058;SDS011;48017;51.064;7.014;2022-10-31T11:41:10;5.30;;;3.50;;
62058;SDS011;48017;51.064;7.014;2022-10-31T11:43:39;7.82;;;3.25;;
62058;SDS011;48017;51.064;7.014;2022-10-31T11:46:18;5.93;;;3.08;;
62058;SDS011;48017;51.064;7.014;2022-10-31T11:48:48;8.43;;;3.40;;
62058;SDS011;48017;51.064;7.014;2022-10-31T11:51:29;8.32;;;2.63;;
62058;SDS011;48017;51.064;7.014;2022-10-31T11:53:58;6.72;;;2.72;;
62058;SDS011;48017;51.064;7.014;2022-10-31T11:56:24;9.52;;;3.25;;
62058;SDS011;48017;51.064;7.014;2022-10-31T11:59:25;6.60;;;3.03;;
62058;SDS011;48017;51.064;7.014;2022-10-31T12:01:51;8.18;;;2.60;;
62058;SDS011;48017;51.064;7.014;2022-10-31T12:04:18;5.78;;;2.80;;
62058;SDS011;48017;51.064;7.014;2022-10-31T12:07:08;7.05;;;3.00;;
62058;SDS011;48017;51.064;7.014;2022-10-31T12:09:34;10.30;;;2.80;;
62058;SDS011;48017;51.064;7.014;2022-10-31T12:14:53;6.32;;;2.70;;
62058;SDS011;48017;51.064;7.014;2022-10-31T12:17:28;5.80;;;3.00;;
62058;SDS011;48017;51.064;7.014;2022-10-31T12:20:05;4.72;;;2.55;;
62058;SDS011;48017;51.064;7.014;2022-10-31T12:22:59;5.25;;;2.83;;
62058;SDS011;48017;51.064;7.014;2022-10-31T12:26:05;5.57;;;2.60;;
62058;SDS011;48017;51.064;7.014;2022-10-31T12:31:26;5.15;;;2.20;;
62058;SDS011;48017;51.064;7.014;2022-10-31T12:36:40;8.73;;;2.70;;
62058;SDS011;48017;51.064;7.014;2022-10-31T12:42:13;6.78;;;2.55;;
62058;SDS011;48017;51.064;7.014;2022-10-31T12:48:18;6.78;;;2.42;;
62058;SDS011;48017;51.064;7.014;2022-10-31T12:56:05;5.03;;;2.30;;
62058;SDS011;48017;51.064;7.014;2022-10-31T12:58:52;8.20;;;2.20;;
62058;SDS011;48017;51.064;7.014;2022-10-31T13:01:31;4.97;;;2.50;;
62058;SDS011;48017;51.064;7.014;2022-10-31T13:06:40;9.50;;;3.20;;
62058;SDS011;48017;51.064;7.014;2022-10-31T13:09:15;5.80;;;2.17;;
62058;SDS011;48017;51.064;7.014;2022-10-31T13:11:55;6.45;;;2.67;;
62058;SDS011;48017;51.064;7.014;2022-10-31T13:14:27;3.85;;;2.15;;
62058;SDS011;48017;51.064;7.014;2022-10-31T13:16:58;8.93;;;2.13;;
62058;SDS011;48017;51.064;7.014;2022-10-31T13:22:21;8.43;;;2.53;;
62058;SDS011;48017;51.064;7.014;2022-10-31T13:27:25;4.90;;;2.35;;
62058;SDS011;48017;51.064;7.014;2022-10-31T13:35:14;6.38;;;2.08;;
62058;SDS011;48017;51.064;7.014;2022-10-31T13:37:49;6.10;;;2.30;;
62058;SDS011;48017;51.064;7.014;2022-10-31T13:41:13;7.07;;;2.38;;
62058;SDS011;48017;51.064;7.014;2022-10-31T13:48:58;4.80;;;2.55;;
62058;SDS011;48017;51.064;7.014;2022-10-31T13:51:33;8.10;;;2.40;;
62058;SDS011;48017;51.064;7.014;2022-10-31T13:54:06;6.05;;;2.28;;
62058;SDS011;48017;51.064;7.014;2022-10-31T13:56:52;6.13;;;2.17;;
62058;SDS011;48017;51.064;7.014;2022-10-31T13:59:19;6.03;;;2.85;;
62058;SDS011;48017;51.064;7.014;2022-10-31T14:01:57;5.60;;;2.22;;
62058;SDS011;48017;51.064;7.014;2022-10-31T14:09:31;5.28;;;2.33;;
62058;SDS011;48017;51.064;7.014;2022-10-31T14:15:03;5.53;;;2.50;;
62058;SDS011;48017;51.064;7.014;2022-10-31T14:17:44;4.95;;;2.13;;
62058;SDS011;48017;51.064;7.014;2022-10-31T14:22:46;4.13;;;2.13;;
62058;SDS011;48017;51.064;7.014;2022-10-31T14:27:57;6.45;;;2.53;;
62058;SDS011;48017;51.064;7.014;2022-10-31T14:30:26;5.13;;;2.38;;
62058;SDS011;48017;51.064;7.014;2022-10-31T14:33:16;3.95;;;1.88;;
62058;SDS011;48017;51.064;7.014;2022-10-31T14:36:06;6.63;;;2.80;;
62058;SDS011;48017;51.064;7.014;2022-10-31T14:38:37;5.28;;;2.00;;
62058;SDS011;48017;51.064;7.014;2022-10-31T14:46:55;3.83;;;1.90;;
62058;SDS011;48017;51.064;7.014;2022-10-31T14:51:46;4.93;;;2.13;;
62058;SDS011;48017;51.064;7.014;2022-10-31T14:54:28;5.00;;;2.25;;
62058;SDS011;48017;51.064;7.014;2022-10-31T14:57:04;5.95;;;2.38;;
62058;SDS011;48017;51.064;7.014;2022-10-31T14:59:33;4.80;;;2.05;;
62058;SDS011;48017;51.064;7.014;2022-10-31T15:02:11;4.72;;;1.90;;
62058;SDS011;48017;51.064;7.014;2022-10-31T15:04:42;6.20;;;2.50;;
62058;SDS011;48017;51.064;7.014;2022-10-31T15:09:43;6.78;;;2.42;;
62058;SDS011;48017;51.064;7.014;2022-10-31T15:12:43;5.20;;;2.10;;
62058;SDS011;48017;51.064;7.014;2022-10-31T15:15:14;6.60;;;2.65;;
62058;SDS011;48017;51.064;7.014;2022-10-31T15:17:44;9.43;;;1.90;;
62058;SDS011;48017;51.064;7.014;2022-10-31T15:20:17;7.63;;;2.40;;
62058;SDS011;48017;51.064;7.014;2022-10-31T15:22:45;5.13;;;1.85;;
62058;SDS011;48017;51.064;7.014;2022-10-31T15:25:14;5.70;;;1.85;;
62058;SDS011;48017;51.064;7.014;2022-10-31T15:27:43;4.95;;;1.75;;
62058;SDS011;48017;51.064;7.014;2022-10-31T15:30:19;10.40;;;2.35;;
62058;SDS011;48017;51.064;7.014;2022-10-31T15:32:49;4.53;;;2.40;;
62058;SDS011;48017;51.064;7.014;2022-10-31T15:35:25;4.78;;;2.00;;
62058;SDS011;48017;51.064;7.014;2022-10-31T15:42:47;4.50;;;1.83;;
62058;SDS011;48017;51.064;7.014;2022-10-31T15:45:18;8.10;;;2.10;;
62058;SDS011;48017;51.064;7.014;2022-10-31T15:47:49;6.85;;;1.90;;
62058;SDS011;48017;51.064;7.014;2022-10-31T15:51:07;7.20;;;2.65;;
62058;SDS011;48017;51.064;7.014;2022-10-31T15:53:31;8.25;;;2.50;;
62058;SDS011;48017;51.064;7.014;2022-10-31T15:56:07;5.93;;;2.17;;
62058;SDS011;48017;51.064;7.014;2022-10-31T15:58:46;5.38;;;2.10;;
62058;SDS011;48017;51.064;7.014;2022-10-31T16:06:28;4.95;;;2.20;;
62058;SDS011;48017;51.064;7.014;2022-10-31T16:08:55;4.57;;;2.00;;
62058;SDS011;48017;51.064;7.014;2022-10-31T18:16:12;4.35;;;1.92;;
62058;SDS011;48017;51.064;7.014;2022-10-31T18:18:40;3.85;;;1.75;;
62058;SDS011;48017;51.064;7.014;2022-10-31T18:21:05;8.50;;;2.33;;
62058;SDS011;48017;51.064;7.014;2022-10-31T18:23:32;5.15;;;1.95;;
62058;SDS011;48017;51.064;7.014;2022-10-31T18:25:57;5.55;;;2.28;;
62058;SDS011;48017;51.064;7.014;2022-10-31T18:28:23;4.47;;;2.05;;
62058;SDS011;48017;51.064;7.014;2022-10-31T18:30:48;5.18;;;1.90;;
62058;SDS011;48017;51.064;7.014;2022-10-31T18:33:14;5.78;;;2.10;;
62058;SDS011;48017;51.064;7.014;2022-10-31T18:35:39;4.80;;;2.13;;
62058;SDS011;48017;51.064;7.014;2022-10-31T18:38:05;6.55;;;2.33;;
62058;SDS011;48017;51.064;7.014;2022-10-31T18:40:32;4.55;;;2.20;;
62058;SDS011;48017;51.064;7.014;2022-10-31T18:42:58;4.28;;;2.10;;
62058;SDS011;48017;51.064;7.014;2022-10-31T18:45:24;7.15;;;2.60;;
62058;SDS011;48017;51.064;7.014;2022-10-31T18:47:50;7.75;;;2.42;;
62058;SDS011;48017;51.064;7.014;2022-10-31T18:50:16;5.18;;;2.03;;
62058;SDS011;48017;51.064;7.014;2022-10-31T18:52:41;7.20;;;2.38;;
62058;SDS011;48017;51.064;7.014;2022-10-31T18:55:07;6.80;;;2.28;;
62058;SDS011;48017;51.064;7.014;2022-10-31T18:57:32;7.70;;;2.50;;
62058;SDS011;48017;51.064;7.014;2022-10-31T18:59:58;4.47;;;2.10;;
62058;SDS011;48017;51.064;7.014;2022-10-31T19:02:23;6.88;;;2.15;;
62058;SDS011;48017;51.064;7.014;2022-10-31T19:04:48;6.85;;;2.13;;
62058;SDS011;48017;51.064;7.014;2022-10-31T19:07:14;5.65;;;2.20;;
62058;SDS011;48017;51.064;7.014;2022-10-31T19:09:39;5.82;;;2.65;;
62058;SDS011;48017;51.064;7.014;2022-10-31T19:12:04;7.10;;;2.40;;
62058;SDS011;48017;51.064;7.014;2022-10-31T19:14:30;4.93;;;2.55;;
62058;SDS011;48017;51.064;7.014;2022-10-31T19:16:55;4.72;;;2.38;;
62058;SDS011;48017;51.064;7.014;2022-10-31T19:19:21;5.65;;;2.15;;
62058;SDS011;48017;51.064;7.014;2022-10-31T19:21:46;9.43;;;2.80;;
62058;SDS011;48017;51.064;7.014;2022-10-31T19:24:12;4.40;;;2.45;;
62058;SDS011;48017;51.064;7.014;2022-10-31T19:26:37;6.80;;;1.98;;
62058;SDS011;48017;51.064;7.014;2022-10-31T19:29:02;5.53;;;2.30;;
62058;SDS011;48017;51.064;7.014;2022-10-31T19:31:28;6.40;;;2.30;;
62058;SDS011;48017;51.064;7.014;2022-10-31T19:33:54;5.03;;;2.17;;
62058;SDS011;48017;51.064;7.014;2022-10-31T19:36:20;3.97;;;2.35;;
62058;SDS011;48017;51.064;7.014;2022-10-31T19:38:46;5.90;;;2.53;;
62058;SDS011;48017;51.064;7.014;2022-10-31T19:41:24;4.38;;;2.38;;